Time;durP1;ratioP1;P1;durP2;ratioP2;P2;SDS_P1;SDS_P2;PMS_P1;PMS_P2;Temp;Humidity;BMP_temperature;BMP_pressure;BME280_temperature;BME280_humidity;BME280_pressure;Samples;Min_cycle;Max_cycle;Signal;HPM_P1;HPM_P2
2023/03/29 00:01:08;;;;;;;7.63;3.80;;;7.00;99.90;;;;;;5111310;28;20515;-72
2023/03/29 00:03:35;;;;;;;7.25;3.95;;;7.00;99.90;;;;;;5111400;28;20073;-72
2023/03/29 00:06:04;;;;;;;7.22;4.00;;;7.00;99.90;;;;;;5097536;28;20030;-72
2023/03/29 00:08:30;;;;;;;8.80;3.97;;;7.00;99.90;;;;;;5101321;28;20043;-73
2023/03/29 00:10:58;;;;;;;6.70;3.63;;;7.00;99.90;;;;;;5115785;28;20035;-73
2023/03/29 00:13:25;;;;;;;11.90;3.95;;;7.00;99.90;;;;;;5102746;28;20498;-73
2023/03/29 00:15:51;;;;;;;6.25;3.83;;;7.00;99.90;;;;;;5116915;28;20038;-73
2023/03/29 00:18:17;;;;;;;7.60;3.83;;;7.00;99.90;;;;;;5108487;28;20423;-73
2023/03/29 00:20:42;;;;;;;7.95;4.10;;;7.10;99.90;;;;;;5116457;28;20016;-73
2023/03/29 00:23:08;;;;;;;7.65;4.15;;;7.10;99.90;;;;;;5099202;28;20015;-72
2023/03/29 00:25:34;;;;;;;8.43;3.90;;;7.00;99.90;;;;;;5095781;28;20390;-72
2023/03/29 00:28:00;;;;;;;8.32;3.92;;;7.10;99.90;;;;;;5077679;28;20039;-72
2023/03/29 00:30:25;;;;;;;7.07;4.13;;;7.10;99.90;;;;;;5103663;28;20022;-72
2023/03/29 00:32:51;;;;;;;9.43;4.45;;;7.10;99.90;;;;;;5116739;28;20023;-72
2023/03/29 00:35:17;;;;;;;9.10;4.40;;;7.10;99.90;;;;;;5116041;28;20015;-72
2023/03/29 00:37:45;;;;;;;7.47;4.10;;;7.10;99.90;;;;;;5103341;28;20023;-73
2023/03/29 00:40:14;;;;;;;8.90;3.88;;;7.10;99.90;;;;;;5105699;28;20020;-72
2023/03/29 00:42:44;;;;;;;8.13;4.45;;;7.20;99.90;;;;;;5094628;28;20036;-72
2023/03/29 00:45:19;;;;;;;11.50;4.00;;;7.20;99.90;;;;;;5096440;28;20024;-72
2023/03/29 00:47:45;;;;;;;;;;;7.20;99.90;;;;;;5096367;28;20143;-72
2023/03/29 00:50:25;;;;;;;7.25;4.03;;;7.20;99.90;;;;;;5109008;28;20417;-72
2023/03/29 00:53:05;;;;;;;7.85;4.18;;;7.30;99.90;;;;;;5094603;28;20547;-72
2023/03/29 00:55:36;;;;;;;8.88;4.35;;;7.30;99.90;;;;;;5095463;28;20108;-72
2023/03/29 00:58:05;;;;;;;7.53;3.92;;;7.30;99.90;;;;;;5113501;28;20035;-72
2023/03/29 01:00:36;;;;;;;8.60;4.25;;;7.30;99.90;;;;;;5115849;28;20034;-72
2023/03/29 01:03:12;;;;;;;6.15;3.97;;;7.40;99.90;;;;;;5115676;28;20027;-71
2023/03/29 01:05:41;;;;;;;7.70;4.40;;;7.40;99.90;;;;;;5116009;28;20069;-73
2023/03/29 01:08:17;;;;;;;7.43;4.05;;;7.40;99.90;;;;;;5097281;28;20027;-73
2023/03/29 01:11:07;;;;;;;6.30;3.95;;;7.40;99.90;;;;;;5106245;28;20038;-72
2023/03/29 01:14:01;;;;;;;10.05;4.28;;;7.40;99.90;;;;;;5104747;28;20020;-72
2023/03/29 01:16:29;;;;;;;8.25;3.97;;;7.50;99.90;;;;;;5101524;28;20073;-72
2023/03/29 01:18:57;;;;;;;9.65;4.60;;;7.50;99.90;;;;;;5115445;28;20031;-73
2023/03/29 01:21:32;;;;;;;9.07;4.30;;;7.50;99.90;;;;;;5114880;28;20020;-73
2023/03/29 01:24:23;;;;;;;8.75;4.40;;;7.50;99.90;;;;;;5114526;28;20043;-73
2023/03/29 01:27:34;;;;;;;8.02;4.25;;;7.50;99.90;;;;;;5102737;28;20047;-73
2023/03/29 01:30:06;;;;;;;10.00;4.75;;;7.50;99.90;;;;;;5074859;28;20065;-73
2023/03/29 01:32:43;;;;;;;6.68;3.95;;;7.50;99.90;;;;;;5103773;28;20334;-73
2023/03/29 01:35:34;;;;;;;6.43;4.30;;;7.50;99.90;;;;;;5113609;28;20011;-73
2023/03/29 01:38:12;;;;;;;11.90;4.97;;;7.60;99.90;;;;;;5115239;28;20089;-72
2023/03/29 01:40:38;;;;;;;9.30;4.60;;;7.60;99.90;;;;;;5106878;28;20024;-72
2023/03/29 01:43:20;;;;;;;8.38;4.45;;;7.60;99.90;;;;;;5094783;28;20076;-72
2023/03/29 01:45:51;;;;;;;9.27;4.88;;;7.60;99.90;;;;;;5100796;28;20027;-72
2023/03/29 01:48:41;;;;;;;7.60;4.30;;;7.60;99.90;;;;;;5114062;28;20030;-72
2023/03/29 01:51:13;;;;;;;10.70;4.65;;;7.60;99.90;;;;;;5108812;28;20061;-72
2023/03/29 01:53:51;;;;;;;11.52;5.35;;;7.60;99.90;;;;;;5108256;28;20033;-73
2023/03/29 01:56:21;;;;;;;9.25;4.53;;;7.60;99.90;;;;;;5113169;28;20016;-73
2023/03/29 01:58:51;;;;;;;9.13;4.50;;;7.60;99.90;;;;;;5080702;28;20107;-73
2023/03/29 02:01:24;;;;;;;10.98;4.90;;;7.70;99.90;;;;;;5102519;28;20031;-73
2023/03/29 02:03:53;;;;;;;10.60;4.80;;;7.70;99.90;;;;;;5109699;28;20110;-73
2023/03/29 02:06:22;;;;;;;9.63;4.85;;;7.70;99.90;;;;;;5082337;28;20484;-73
2023/03/29 02:08:50;;;;;;;9.50;4.70;;;7.70;99.90;;;;;;5106756;28;20377;-73
2023/03/29 02:11:16;;;;;;;9.73;4.90;;;7.70;99.90;;;;;;5112288;28;20596;-73
2023/03/29 02:13:41;;;;;;;11.00;5.00;;;7.70;99.90;;;;;;5101350;28;20081;-73
2023/03/29 02:16:12;;;;;;;9.00;4.90;;;7.70;99.90;;;;;;5095974;28;20019;-73
2023/03/29 02:18:39;;;;;;;11.80;5.07;;;7.70;99.90;;;;;;5112512;28;20046;-72
2023/03/29 02:21:07;;;;;;;10.55;4.53;;;7.70;99.90;;;;;;5074573;28;20036;-72
2023/03/29 02:23:38;;;;;;;10.23;4.90;;;7.70;99.90;;;;;;5094888;28;20420;-72
2023/03/29 02:26:06;;;;;;;8.85;5.05;;;7.70;99.90;;;;;;5111109;28;20532;-73
2023/03/29 02:28:32;;;;;;;10.10;5.32;;;7.70;99.90;;;;;;5113803;28;20477;-72
2023/03/29 02:31:30;;;;;;;10.95;5.47;;;7.70;99.90;;;;;;5113068;28;20023;-72
2023/03/29 02:34:09;;;;;;;8.63;5.00;;;7.70;99.90;;;;;;5110974;28;20028;-72
2023/03/29 02:36:57;;;;;;;11.68;5.03;;;7.70;99.90;;;;;;5107003;28;20035;-72
2023/03/29 02:39:25;;;;;;;10.52;5.22;;;7.70;99.90;;;;;;5111644;28;20054;-72
2023/03/29 02:41:52;;;;;;;9.60;4.97;;;7.70;99.90;;;;;;5119232;28;20019;-72
2023/03/29 02:44:21;;;;;;;9.55;5.38;;;7.70;99.90;;;;;;5101847;28;20023;-72
2023/03/29 02:46:49;;;;;;;8.70;5.30;;;7.70;99.90;;;;;;5097622;28;20401;-72
2023/03/29 02:49:15;;;;;;;9.40;5.38;;;7.80;99.90;;;;;;5109603;28;20484;-72
2023/03/29 02:51:42;;;;;;;11.05;5.82;;;7.80;99.90;;;;;;5106107;28;20051;-73
2023/03/29 02:54:18;;;;;;;13.43;6.00;;;7.80;99.90;;;;;;5101983;28;20531;-72
2023/03/29 02:57:05;;;;;;;11.35;5.70;;;7.80;99.90;;;;;;5095398;28;20097;-71
2023/03/29 02:59:32;;;;;;;8.73;5.65;;;7.80;99.90;;;;;;5107439;28;20036;-72
2023/03/29 03:01:58;;;;;;;8.88;5.10;;;7.80;99.90;;;;;;5103880;28;20375;-73
2023/03/29 03:04:24;;;;;;;12.65;5.35;;;7.80;99.90;;;;;;5114203;28;20489;-73
2023/03/29 03:06:50;;;;;;;12.85;5.80;;;7.80;99.90;;;;;;5113614;28;20051;-72
2023/03/29 03:09:16;;;;;;;12.90;6.07;;;7.80;99.90;;;;;;5113739;28;20097;-72
2023/03/29 03:11:42;;;;;;;9.73;5.57;;;7.80;99.90;;;;;;5094826;28;20505;-72
2023/03/29 03:14:08;;;;;;;12.43;5.22;;;7.80;99.90;;;;;;5113666;28;20042;-72
2023/03/29 03:16:34;;;;;;;12.95;5.50;;;7.90;99.90;;;;;;5113770;28;20023;-72
2023/03/29 03:18:59;;;;;;;12.02;5.63;;;7.90;99.90;;;;;;5114355;28;20032;-72
2023/03/29 03:21:27;;;;;;;12.65;5.80;;;7.90;99.90;;;;;;5112992;28;20027;-72
2023/03/29 03:23:53;;;;;;;11.93;5.65;;;7.90;99.90;;;;;;5114221;28;20023;-73
2023/03/29 03:26:19;;;;;;;11.98;5.97;;;7.90;99.90;;;;;;5117214;28;20073;-72
2023/03/29 03:28:45;;;;;;;11.05;5.93;;;7.90;99.90;;;;;;5116300;28;20032;-72
2023/03/29 03:31:14;;;;;;;10.80;5.80;;;7.90;99.90;;;;;;5116423;28;20026;-72
2023/03/29 03:33:40;;;;;;;11.23;5.85;;;7.90;99.90;;;;;;5116381;28;20028;-72
2023/03/29 03:36:08;;;;;;;11.48;5.80;;;7.90;99.90;;;;;;5116099;28;20020;-72
2023/03/29 03:38:35;;;;;;;12.05;5.82;;;7.90;99.90;;;;;;5114728;28;20043;-72
2023/03/29 03:41:01;;;;;;;11.23;5.68;;;8.00;99.90;;;;;;5114510;28;20047;-72
2023/03/29 03:43:27;;;;;;;12.13;6.03;;;8.00;99.90;;;;;;5099841;28;20039;-73
2023/03/29 03:45:54;;;;;;;11.80;5.88;;;8.00;99.90;;;;;;5113750;28;20102;-72
2023/03/29 03:48:21;;;;;;;14.77;6.43;;;8.00;99.90;;;;;;5114523;28;20023;-73
2023/03/29 03:50:50;;;;;;;11.27;6.25;;;8.00;99.90;;;;;;5116335;28;20332;-73
2023/03/29 03:53:15;;;;;;;13.38;6.78;;;8.00;99.90;;;;;;5115497;28;20024;-73
2023/03/29 03:55:41;;;;;;;8.63;5.57;;;8.00;99.90;;;;;;5113841;28;20024;-73
2023/03/29 03:58:08;;;;;;;9.90;5.88;;;8.00;99.90;;;;;;5114953;28;20027;-72
2023/03/29 04:00:33;;;;;;;11.00;6.03;;;8.00;99.90;;;;;;5106993;28;20027;-72
2023/03/29 04:03:00;;;;;;;12.80;6.32;;;8.00;99.90;;;;;;5114406;28;20470;-72
2023/03/29 04:05:26;;;;;;;11.60;6.40;;;8.10;99.90;;;;;;5104251;28;20027;-72
2023/03/29 04:07:53;;;;;;;12.77;6.38;;;8.10;99.90;;;;;;5115600;28;20024;-72
2023/03/29 04:10:19;;;;;;;11.88;6.25;;;8.10;99.90;;;;;;5101848;28;20024;-72
2023/03/29 04:12:45;;;;;;;12.50;6.63;;;8.20;99.90;;;;;;5116080;28;20047;-72
2023/03/29 04:15:11;;;;;;;14.55;6.95;;;8.20;99.90;;;;;;5115700;28;20058;-72
2023/03/29 04:17:36;;;;;;;12.32;6.70;;;8.20;99.90;;;;;;5114575;28;20020;-72
2023/03/29 04:20:09;;;;;;;11.52;6.28;;;8.20;99.90;;;;;;5115411;28;20065;-72
2023/03/29 04:22:34;;;;;;;32.80;17.77;;;8.20;99.90;;;;;;5114930;28;20454;-73
2023/03/29 04:25:00;;;;;;;239.88;135.45;;;8.20;99.90;;;;;;5114953;28;20059;-71
2023/03/29 04:27:26;;;;;;;23.30;12.52;;;8.30;99.90;;;;;;5115898;28;20023;-73
2023/03/29 04:29:51;;;;;;;13.35;7.10;;;8.30;99.90;;;;;;5114790;28;20031;-73
2023/03/29 04:32:17;;;;;;;13.50;7.03;;;8.30;99.90;;;;;;5096766;28;20032;-73
2023/03/29 04:34:43;;;;;;;11.85;6.40;;;8.30;99.90;;;;;;5115029;28;20091;-71
2023/03/29 04:37:09;;;;;;;12.07;6.60;;;8.30;99.90;;;;;;5114740;28;20035;-71
2023/03/29 04:39:38;;;;;;;15.63;6.75;;;8.30;99.90;;;;;;5114186;28;20035;-72
2023/03/29 04:42:04;;;;;;;11.70;6.47;;;8.30;99.90;;;;;;5108427;28;20044;-72
2023/03/29 04:44:33;;;;;;;19.88;6.78;;;8.30;99.90;;;;;;5108031;28;20019;-72
2023/03/29 04:47:00;;;;;;;16.02;6.55;;;8.30;99.90;;;;;;5114433;28;20043;-72
2023/03/29 04:49:26;;;;;;;12.73;6.25;;;8.40;99.90;;;;;;5103917;28;20036;-72
2023/03/29 04:51:52;;;;;;;14.07;6.70;;;8.40;99.90;;;;;;5114779;28;20084;-72
2023/03/29 04:54:18;;;;;;;10.85;5.97;;;8.40;99.90;;;;;;5114486;28;20026;-72
2023/03/29 04:56:43;;;;;;;11.75;6.53;;;8.40;99.90;;;;;;5113668;28;20534;-72
2023/03/29 04:59:09;;;;;;;13.25;6.78;;;8.40;99.90;;;;;;5078028;28;20032;-72
2023/03/29 05:01:34;;;;;;;10.65;6.07;;;8.40;99.90;;;;;;5114820;28;20066;-73
2023/03/29 05:04:01;;;;;;;11.60;6.45;;;8.40;99.90;;;;;;5097152;28;20035;-73
2023/03/29 05:06:28;;;;;;;12.25;7.30;;;8.50;99.90;;;;;;5103049;28;20409;-73
2023/03/29 05:08:54;;;;;;;11.50;6.40;;;8.50;99.90;;;;;;5106090;28;20028;-72
2023/03/29 05:11:20;;;;;;;12.45;7.05;;;8.50;99.90;;;;;;5112433;28;20020;-72
2023/03/29 05:13:46;;;;;;;11.90;7.18;;;8.50;99.90;;;;;;5104982;28;20121;-73
2023/03/29 05:16:12;;;;;;;12.60;6.82;;;8.50;99.90;;;;;;5112385;28;20035;-73
2023/03/29 05:18:37;;;;;;;14.63;6.75;;;8.50;99.90;;;;;;5107111;28;20035;-73
2023/03/29 05:21:03;;;;;;;13.23;6.55;;;8.50;99.90;;;;;;5114260;28;20107;-72
2023/03/29 05:23:29;;;;;;;13.73;7.47;;;8.60;99.90;;;;;;5114461;28;20024;-73
2023/03/29 05:25:55;;;;;;;13.00;6.80;;;8.60;99.90;;;;;;5114607;28;20032;-73
2023/03/29 05:28:21;;;;;;;13.23;7.07;;;8.60;99.90;;;;;;5108596;28;20245;-73
2023/03/29 05:30:47;;;;;;;16.65;7.22;;;8.60;99.90;;;;;;5105715;28;20028;-73
2023/03/29 05:33:13;;;;;;;12.75;7.20;;;8.60;99.90;;;;;;5109623;28;20023;-73
2023/03/29 05:35:39;;;;;;;17.38;8.23;;;8.60;99.90;;;;;;5103541;28;20020;-73
2023/03/29 05:38:05;;;;;;;12.82;7.32;;;8.60;99.90;;;;;;5105457;28;20066;-73
2023/03/29 05:40:31;;;;;;;12.00;7.22;;;8.60;99.90;;;;;;5105336;28;20027;-73
2023/03/29 05:43:00;;;;;;;13.82;7.35;;;8.60;99.90;;;;;;5106907;28;20029;-72
2023/03/29 05:45:28;;;;;;;17.98;7.30;;;8.70;99.90;;;;;;5103315;28;20036;-72
2023/03/29 05:47:54;;;;;;;14.80;7.72;;;8.70;99.90;;;;;;5106100;28;20048;-72
2023/03/29 05:50:19;;;;;;;16.48;7.63;;;8.70;99.90;;;;;;5110674;28;20497;-72
2023/03/29 05:52:46;;;;;;;16.33;7.97;;;8.70;99.90;;;;;;5111033;28;20032;-73
2023/03/29 05:55:12;;;;;;;15.90;7.80;;;8.70;99.90;;;;;;5113492;28;20042;-73
2023/03/29 05:57:38;;;;;;;13.00;7.95;;;8.70;99.90;;;;;;5094547;28;20658;-73
2023/03/29 06:00:24;;;;;;;14.55;7.60;;;8.70;99.90;;;;;;5098136;28;20035;-73
2023/03/29 06:02:51;;;;;;;13.68;7.50;;;8.70;99.90;;;;;;5093418;28;20028;-72
2023/03/29 06:05:18;;;;;;;14.10;7.65;;;8.80;99.90;;;;;;5093525;28;20462;-73
2023/03/29 06:07:44;;;;;;;17.83;8.52;;;8.70;99.90;;;;;;5079597;28;20502;-73
2023/03/29 06:10:10;;;;;;;15.15;7.75;;;8.80;99.90;;;;;;5094761;28;20088;-73
2023/03/29 06:12:36;;;;;;;19.65;8.70;;;8.80;99.90;;;;;;5109569;28;20119;-72
2023/03/29 06:15:03;;;;;;;18.67;8.18;;;8.80;99.90;;;;;;5107232;28;20024;-72
2023/03/29 06:17:30;;;;;;;21.63;8.27;;;8.80;99.90;;;;;;5090431;28;20422;-72
2023/03/29 06:19:56;;;;;;;14.50;7.53;;;8.80;99.90;;;;;;5111802;28;20051;-72
2023/03/29 06:22:22;;;;;;;12.73;8.25;;;8.80;99.90;;;;;;5100337;28;20039;-73
2023/03/29 06:24:48;;;;;;;15.80;9.00;;;8.90;99.90;;;;;;5105130;28;20020;-72
2023/03/29 06:27:14;;;;;;;20.15;9.43;;;8.90;99.90;;;;;;5102223;28;20469;-72
2023/03/29 06:29:40;;;;;;;16.90;8.32;;;8.90;99.90;;;;;;5107075;28;20047;-72
2023/03/29 06:32:05;;;;;;;16.02;8.85;;;9.00;99.90;;;;;;5110608;28;20047;-72
2023/03/29 06:34:31;;;;;;;22.00;9.25;;;9.00;99.90;;;;;;5110643;28;20028;-72
2023/03/29 06:36:57;;;;;;;20.45;9.13;;;9.00;99.90;;;;;;5108600;28;20020;-72
2023/03/29 06:39:24;;;;;;;20.00;9.88;;;9.00;99.90;;;;;;5113791;28;20020;-72
2023/03/29 06:41:50;;;;;;;18.63;9.32;;;9.10;99.90;;;;;;5107039;28;20029;-72
2023/03/29 06:44:16;;;;;;;20.45;8.60;;;9.10;99.90;;;;;;5104415;28;20101;-72
2023/03/29 06:46:42;;;;;;;21.23;8.98;;;9.10;99.90;;;;;;5110720;28;20071;-73
2023/03/29 06:49:07;;;;;;;18.27;9.18;;;9.10;99.90;;;;;;5111442;28;20067;-73
2023/03/29 06:51:33;;;;;;;21.85;10.10;;;9.10;99.90;;;;;;5106698;28;20449;-72
2023/03/29 06:53:59;;;;;;;21.83;10.57;;;9.20;99.90;;;;;;5111592;28;20043;-72
2023/03/29 06:56:24;;;;;;;18.52;9.90;;;9.20;99.90;;;;;;5108078;28;20103;-72
2023/03/29 06:58:50;;;;;;;22.67;11.00;;;9.20;99.90;;;;;;5109134;28;20107;-72
2023/03/29 07:01:16;;;;;;;24.30;11.02;;;9.20;99.90;;;;;;5101787;28;20386;-72
2023/03/29 07:03:44;;;;;;;20.15;11.00;;;9.30;99.90;;;;;;5112532;28;20070;-73
2023/03/29 07:06:11;;;;;;;22.77;10.38;;;9.30;99.90;;;;;;5104522;28;20077;-71
2023/03/29 07:08:42;;;;;;;21.80;10.70;;;9.30;99.90;;;;;;5107593;28;20042;-71
2023/03/29 07:11:13;;;;;;;25.75;11.27;;;9.30;99.90;;;;;;5100063;28;20032;-72
2023/03/29 07:13:41;;;;;;;25.58;11.50;;;9.30;99.90;;;;;;5103855;28;20024;-72
2023/03/29 07:16:13;;;;;;;25.38;10.40;;;9.40;99.90;;;;;;5110250;28;20020;-72
2023/03/29 07:18:40;;;;;;;27.25;11.60;;;9.40;99.90;;;;;;5109831;28;20450;-71
2023/03/29 07:21:07;;;;;;;24.98;11.32;;;9.50;99.90;;;;;;5109129;28;20058;-72
2023/03/29 07:23:33;;;;;;;25.38;11.55;;;9.50;99.90;;;;;;5112580;28;20020;-73
2023/03/29 07:25:59;;;;;;;29.38;12.13;;;9.50;99.90;;;;;;5113660;28;20016;-73
2023/03/29 07:28:24;;;;;;;26.48;12.10;;;9.60;99.90;;;;;;5101129;28;20055;-73
2023/03/29 07:30:50;;;;;;;24.08;11.27;;;9.60;99.90;;;;;;5113070;28;20039;-72
2023/03/29 07:33:16;;;;;;;25.92;12.20;;;9.60;99.90;;;;;;5112122;28;20038;-71
2023/03/29 07:35:43;;;;;;;23.27;11.98;;;9.60;99.90;;;;;;5111713;28;20098;-73
2023/03/29 07:38:09;;;;;;;28.90;12.18;;;9.70;99.90;;;;;;5114375;28;20023;-73
2023/03/29 07:40:34;;;;;;;31.83;13.30;;;9.70;99.90;;;;;;5113897;28;20023;-73
2023/03/29 07:43:01;;;;;;;27.35;13.65;;;9.70;99.90;;;;;;5113699;28;20037;-73
2023/03/29 07:45:30;;;;;;;32.80;13.77;;;9.70;99.90;;;;;;5113744;28;20019;-72
2023/03/29 07:47:57;;;;;;;29.50;14.10;;;9.80;99.90;;;;;;5113462;28;20082;-72
2023/03/29 07:50:23;;;;;;;27.77;14.23;;;9.80;99.90;;;;;;5112398;28;20032;-72
2023/03/29 07:52:49;;;;;;;32.33;14.60;;;9.80;99.90;;;;;;5109833;28;20065;-73
2023/03/29 07:55:15;;;;;;;35.58;15.13;;;9.80;99.90;;;;;;5109476;28;20462;-72
2023/03/29 07:57:42;;;;;;;35.45;15.10;;;9.90;99.90;;;;;;5105099;28;20024;-73
2023/03/29 08:00:15;;;;;;;36.67;15.05;;;9.90;99.90;;;;;;5100189;28;20521;-73
2023/03/29 08:02:54;;;;;;;32.35;15.30;;;9.90;99.90;;;;;;5108607;28;20407;-73
2023/03/29 08:05:21;;;;;;;31.33;16.02;;;10.00;99.90;;;;;;5101025;28;20107;-72
2023/03/29 08:07:48;;;;;;;36.55;16.27;;;10.10;99.90;;;;;;5113944;28;20031;-72
2023/03/29 08:10:17;;;;;;;37.47;16.67;;;10.10;99.90;;;;;;5109283;28;20023;-72
2023/03/29 08:12:44;;;;;;;34.35;16.60;;;10.10;99.90;;;;;;5111345;28;20478;-72
2023/03/29 08:15:10;;;;;;;39.38;16.77;;;10.20;99.90;;;;;;5104289;28;20024;-72
2023/03/29 08:17:36;;;;;;;38.38;16.40;;;10.20;99.90;;;;;;5112265;28;20019;-73
2023/03/29 08:20:04;;;;;;;38.03;16.88;;;10.20;99.90;;;;;;5107032;28;20421;-73
2023/03/29 08:22:31;;;;;;;38.35;16.50;;;10.20;99.90;;;;;;5110637;28;20622;-73
2023/03/29 08:24:57;;;;;;;37.92;16.80;;;10.30;99.90;;;;;;5110974;28;20055;-72
2023/03/29 08:27:23;;;;;;;34.65;15.63;;;10.30;99.90;;;;;;5112814;28;20038;-73
2023/03/29 08:29:49;;;;;;;30.30;15.57;;;10.30;99.90;;;;;;5113630;28;20420;-73
2023/03/29 08:32:14;;;;;;;34.55;16.45;;;10.40;99.90;;;;;;5113541;28;20066;-73
2023/03/29 08:34:40;;;;;;;42.72;17.90;;;10.40;99.90;;;;;;5112441;28;20020;-72
2023/03/29 08:37:07;;;;;;;34.75;17.30;;;10.40;99.90;;;;;;5113339;28;20095;-73
2023/03/29 08:39:33;;;;;;;35.40;17.38;;;10.50;99.90;;;;;;5107546;28;20023;-72
2023/03/29 08:41:58;;;;;;;37.95;17.55;;;10.60;99.90;;;;;;5089870;28;20020;-72
2023/03/29 08:45:01;;;;;;;37.40;18.50;;;10.60;99.90;;;;;;5113417;28;20027;-73
2023/03/29 08:47:45;;;;;;;38.10;17.98;;;10.70;99.90;;;;;;5104828;28;20802;-73
2023/03/29 08:50:12;;;;;;;38.17;18.48;;;10.70;99.90;;;;;;5091329;28;20367;-73
2023/03/29 08:53:09;;;;;;;32.20;16.33;;;10.70;99.90;;;;;;5105637;28;20035;-73
2023/03/29 08:55:44;;;;;;;32.15;15.48;;;10.80;99.90;;;;;;5103908;28;20092;-73
2023/03/29 08:58:24;;;;;;;34.17;16.15;;;10.70;99.90;;;;;;5097940;28;20031;-73
2023/03/29 09:00:52;;;;;;;28.23;14.68;;;10.80;99.90;;;;;;5105386;28;20023;-73
2023/03/29 09:03:24;;;;;;;32.28;16.65;;;10.80;99.90;;;;;;5113229;28;20028;-72
2023/03/29 09:06:06;;;;;;;28.70;15.20;;;10.90;99.90;;;;;;5110138;28;20021;-72
2023/03/29 09:08:46;;;;;;;26.38;15.23;;;10.90;99.90;;;;;;5114006;28;20023;-72
2023/03/29 09:11:30;;;;;;;31.20;16.38;;;11.00;99.90;;;;;;5110223;28;20033;-72
2023/03/29 09:14:08;;;;;;;30.30;15.93;;;11.10;99.90;;;;;;5113759;28;20031;-72
2023/03/29 09:16:49;;;;;;;31.60;16.10;;;11.20;99.90;;;;;;5109779;28;20031;-72
2023/03/29 09:19:52;;;;;;;29.83;15.93;;;11.20;99.90;;;;;;5110920;28;20072;-72
2023/03/29 09:22:30;;;;;;;34.33;17.42;;;11.30;99.90;;;;;;5104240;28;20027;-72
2023/03/29 09:25:32;;;;;;;32.75;16.85;;;11.20;99.90;;;;;;5109588;28;20064;-73
2023/03/29 09:28:08;;;;;;;30.73;16.80;;;11.20;99.90;;;;;;5112105;28;20046;-73
2023/03/29 09:30:48;;;;;;;30.02;16.38;;;11.30;99.90;;;;;;5112254;28;20144;-72
2023/03/29 09:33:26;;;;;;;32.92;16.20;;;11.30;99.90;;;;;;5108466;28;20024;-73
2023/03/29 09:35:53;;;;;;;28.52;16.33;;;11.40;99.90;;;;;;5103715;28;20019;-72
2023/03/29 09:38:21;;;;;;;33.00;16.17;;;11.40;99.90;;;;;;5108487;28;20027;-73
2023/03/29 09:40:54;;;;;;;30.70;16.63;;;11.40;99.90;;;;;;5104774;28;20020;-73
2023/03/29 09:43:29;;;;;;;34.05;17.95;;;11.40;99.90;;;;;;5110514;28;20032;-73
2023/03/29 09:45:58;;;;;;;32.13;17.75;;;11.40;99.90;;;;;;5100886;28;20027;-73
2023/03/29 09:48:26;;;;;;;33.08;17.70;;;11.40;99.90;;;;;;5110772;28;20027;-73
2023/03/29 09:50:53;;;;;;;28.23;17.60;;;11.40;99.90;;;;;;5077192;28;20048;-73
2023/03/29 09:53:20;;;;;;;26.90;16.60;;;11.40;99.90;;;;;;5103551;28;20464;-73
2023/03/29 09:55:48;;;;;;;23.50;15.02;;;11.50;99.90;;;;;;5110889;28;20473;-73
2023/03/29 09:58:26;;;;;;;22.60;14.63;;;11.50;99.90;;;;;;5107547;28;20073;-73
2023/03/29 10:00:55;;;;;;;26.60;15.60;;;11.50;99.90;;;;;;5111846;28;20047;-72
2023/03/29 10:03:27;;;;;;;22.90;15.40;;;11.50;99.90;;;;;;5093078;28;20016;-72
2023/03/29 10:05:57;;;;;;;24.02;14.55;;;11.50;99.90;;;;;;5108769;28;20440;-72
2023/03/29 10:08:26;;;;;;;26.48;16.55;;;11.50;99.90;;;;;;5111034;28;20031;-73
2023/03/29 10:10:52;;;;;;;25.90;17.70;;;11.50;99.90;;;;;;5103969;28;20352;-72
2023/03/29 10:13:26;;;;;;;27.98;19.20;;;11.60;99.90;;;;;;5111693;28;20028;-73
2023/03/29 10:16:17;;;;;;;24.88;17.67;;;11.60;99.90;;;;;;5111548;28;20108;-73
2023/03/29 10:18:43;;;;;;;21.35;15.98;;;11.60;99.90;;;;;;5109619;28;20027;-73
2023/03/29 10:21:14;;;;;;;22.60;14.73;;;11.70;99.90;;;;;;5109361;28;20417;-73
2023/03/29 10:23:40;;;;;;;21.40;15.73;;;11.70;99.90;;;;;;5109324;28;20449;-73
2023/03/29 10:26:29;;;;;;;25.70;16.80;;;11.60;99.90;;;;;;5097596;28;20108;-72
2023/03/29 10:28:56;;;;;;;28.80;18.08;;;11.60;99.90;;;;;;5102034;28;20070;-74
2023/03/29 10:31:23;;;;;;;27.70;18.40;;;11.60;99.90;;;;;;5103696;28;20111;-72
2023/03/29 10:33:55;;;;;;;34.10;21.08;;;11.60;99.90;;;;;;5106624;28;20020;-72
2023/03/29 10:36:22;;;;;;;35.17;22.15;;;11.70;99.90;;;;;;5100185;28;20038;-72
2023/03/29 10:38:49;;;;;;;37.22;24.10;;;11.70;99.90;;;;;;5113876;28;20039;-72
2023/03/29 10:41:16;;;;;;;40.17;26.23;;;11.60;99.90;;;;;;5114197;28;20050;-72
2023/03/29 10:43:45;;;;;;;44.53;28.48;;;11.70;99.90;;;;;;5114113;28;20069;-72
2023/03/29 10:46:32;;;;;;;42.90;26.95;;;11.70;99.90;;;;;;5113094;28;20426;-74
2023/03/29 10:49:03;;;;;;;41.42;27.00;;;11.70;99.90;;;;;;5107571;28;20059;-73
2023/03/29 10:51:29;;;;;;;42.95;25.98;;;11.80;99.90;;;;;;5104710;28;20069;-73
2023/03/29 10:53:59;;;;;;;39.70;25.80;;;11.80;99.90;;;;;;5109006;28;20035;-73
2023/03/29 10:57:07;;;;;;;43.90;26.30;;;11.80;99.90;;;;;;5113611;28;20023;-72
2023/03/29 10:59:39;;;;;;;46.42;27.98;;;11.90;99.90;;;;;;5027293;28;20068;-72
2023/03/29 11:02:14;;;;;;;43.25;27.10;;;12.00;99.90;;;;;;5007730;28;20520;-72
2023/03/29 11:04:45;;;;;;;53.35;35.47;;;12.10;99.90;;;;;;5013298;28;20033;-72
2023/03/29 11:07:47;;;;;;;42.63;29.63;;;12.20;99.90;;;;;;5030755;28;20073;-72
2023/03/29 11:10:37;;;;;;;61.92;39.50;;;12.30;99.90;;;;;;5027926;28;20042;-72
2023/03/29 11:13:05;;;;;;;46.17;26.83;;;12.40;99.90;;;;;;5027519;28;20076;-73
2023/03/29 11:15:55;;;;;;;35.08;24.05;;;12.50;99.90;;;;;;5028654;28;20024;-74
2023/03/29 11:18:48;;;;;;;38.22;25.00;;;12.60;99.90;;;;;;5030766;28;20048;-74
2023/03/29 11:21:32;;;;;;;40.67;26.77;;;12.60;99.90;;;;;;5028638;28;20164;-73
2023/03/29 11:24:06;;;;;;;34.92;23.50;;;12.50;99.90;;;;;;5020113;28;20045;-73
2023/03/29 11:26:56;;;;;;;29.50;18.55;;;12.50;99.90;;;;;;5031672;28;20021;-73
2023/03/29 11:29:27;;;;;;;29.42;16.50;;;12.40;99.90;;;;;;5024284;28;20033;-72
2023/03/29 11:32:23;;;;;;;26.33;15.73;;;12.40;99.90;;;;;;5026087;28;20034;-73
2023/03/29 11:35:09;;;;;;;28.70;17.02;;;12.30;99.90;;;;;;5028767;28;20125;-73
2023/03/29 11:37:59;;;;;;;26.27;16.90;;;12.30;99.90;;;;;;5112203;28;20382;-73
2023/03/29 11:40:43;;;;;;;28.98;17.70;;;12.30;99.90;;;;;;5113693;28;20027;-72
2023/03/29 11:43:19;;;;;;;26.95;17.30;;;12.20;99.90;;;;;;5113326;28;20128;-72
2023/03/29 11:45:53;;;;;;;26.50;16.88;;;12.20;99.90;;;;;;5100721;28;20051;-72
2023/03/29 11:48:24;;;;;;;27.27;16.75;;;12.20;99.90;;;;;;5114531;28;20030;-72
2023/03/29 11:50:57;;;;;;;26.48;16.05;;;12.20;99.90;;;;;;5109261;28;20478;-73
2023/03/29 11:53:44;;;;;;;28.23;16.42;;;12.30;99.90;;;;;;5102098;28;20028;-72
2023/03/29 11:56:23;;;;;;;27.95;15.77;;;12.30;99.90;;;;;;5101486;28;20036;-72
2023/03/29 11:58:56;;;;;;;28.35;15.57;;;12.30;99.90;;;;;;5111295;28;20015;-72
2023/03/29 12:01:32;;;;;;;23.33;15.32;;;12.40;99.90;;;;;;5110511;28;20469;-73
2023/03/29 12:04:32;;;;;;;25.42;14.18;;;12.50;99.90;;;;;;5114204;28;20090;-73
2023/03/29 12:07:16;;;;;;;23.25;14.30;;;12.70;99.90;;;;;;5100411;28;20027;-73
2023/03/29 12:09:50;;;;;;;26.70;15.38;;;12.70;99.90;;;;;;5113654;28;20882;-73
2023/03/29 12:12:23;;;;;;;27.70;16.15;;;12.70;99.90;;;;;;5100451;28;20035;-73
2023/03/29 12:14:59;;;;;;;26.05;15.93;;;12.70;99.90;;;;;;5094490;28;20031;-73
2023/03/29 12:17:40;;;;;;;27.02;15.60;;;12.70;99.90;;;;;;5107133;28;20042;-73
2023/03/29 12:20:16;;;;;;;25.08;15.60;;;12.60;99.90;;;;;;5110046;28;20024;-73
2023/03/29 12:22:45;;;;;;;28.35;16.75;;;12.60;99.90;;;;;;5113965;28;20532;-73
2023/03/29 12:25:16;;;;;;;27.40;15.88;;;12.50;99.90;;;;;;5113587;28;20011;-73
2023/03/29 12:28:18;;;;;;;27.88;16.58;;;12.50;99.90;;;;;;5109380;28;20024;-73
2023/03/29 12:30:59;;;;;;;32.20;16.85;;;12.60;99.90;;;;;;5083479;28;20138;-72
2023/03/29 12:33:34;;;;;;;27.48;16.70;;;12.60;99.90;;;;;;5109373;28;20024;-73
2023/03/29 12:36:09;;;;;;;27.60;16.05;;;12.60;99.90;;;;;;5091143;28;20035;-73
2023/03/29 12:38:36;;;;;;;26.23;15.38;;;12.60;99.90;;;;;;5112020;28;20032;-73
2023/03/29 12:41:14;;;;;;;26.85;14.93;;;12.70;99.90;;;;;;5104421;28;20115;-73
2023/03/29 12:43:42;;;;;;;24.85;13.07;;;12.70;99.90;;;;;;5103468;28;20112;-73
2023/03/29 12:46:18;;;;;;;24.85;12.07;;;12.80;99.90;;;;;;5105904;28;20043;-72
2023/03/29 12:48:48;;;;;;;18.90;11.05;;;12.90;99.90;;;;;;5113247;28;20076;-72
2023/03/29 12:51:21;;;;;;;14.77;8.93;;;13.00;99.90;;;;;;5106864;28;20039;-73
2023/03/29 12:53:52;;;;;;;16.02;9.82;;;13.10;99.90;;;;;;5105957;28;20456;-73
2023/03/29 12:56:35;;;;;;;17.38;9.00;;;13.10;99.90;;;;;;5109080;28;20024;-73
2023/03/29 12:59:35;;;;;;;14.18;8.80;;;13.20;99.90;;;;;;5112409;28;20023;-73
2023/03/29 13:02:16;;;;;;;14.07;8.40;;;13.30;99.90;;;;;;5099320;28;20049;-73